Gatzke, Minnesota
Current Conditions -  °F | °C
As of 8:34 AM on Friday 24 Oct 2014 (Local Time) from KROX Reporting Station
Clear Clear  
Wind Chill: 44°   Ceiling: Unl
Heat Index: 46°   Visibility: 10mi
Dew Point: 39°   Wind: 5mph
Humidity: 76%   Direction: 180°S
Pressure: 29.72"   Gusts: NA
Location:  48.42°N, 95.78°W
Report Text: KROX 241334Z AUTO 18004KT 10SM CLR 08/04 A2972 RMK AO2
Loading
Personal Weather Stations






























Interactive Weather Map
Tropical Storm Tracking
New forecast layout! Learn more

10-Day Weather Forecast

Advertisements
Track Severe Weather on mobile